sensor_id;sensor_type;location;lat;lon;timestamp;pressure;altitude;pressure_sealevel;temperature;humidity
42003;BME280;27693;50.506;30.832;2023-02-28T00:00:29;100879.87;;;-1.58;65.76
42003;BME280;27693;50.506;30.832;2023-02-28T00:01:34;100885.59;;;-1.67;65.60
42003;BME280;27693;50.506;30.832;2023-02-28T00:02:40;100883.16;;;-1.62;66.08
42003;BME280;27693;50.506;30.832;2023-02-28T00:03:43;100878.94;;;-1.62;65.70
42003;BME280;27693;50.506;30.832;2023-02-28T00:04:47;100878.77;;;-1.68;65.73
42003;BME280;27693;50.506;30.832;2023-02-28T00:05:52;100881.29;;;-1.69;65.80
42003;BME280;27693;50.506;30.832;2023-02-28T00:06:55;100878.88;;;-1.63;65.86
42003;BME280;27693;50.506;30.832;2023-02-28T00:07:57;100887.47;;;-1.59;65.83
42003;BME280;27693;50.506;30.832;2023-02-28T00:08:59;100879.70;;;-1.64;65.43
42003;BME280;27693;50.506;30.832;2023-02-28T00:10:03;100883.02;;;-1.68;65.81
42003;BME280;27693;50.506;30.832;2023-02-28T00:11:09;100879.79;;;-1.98;65.62
42003;BME280;27693;50.506;30.832;2023-02-28T00:12:13;100887.56;;;-1.93;65.96
42003;BME280;27693;50.506;30.832;2023-02-28T00:13:16;100901.59;;;-2.09;66.15
42003;BME280;27693;50.506;30.832;2023-02-28T00:14:19;100889.88;;;-2.02;66.32
42003;BME280;27693;50.506;30.832;2023-02-28T00:15:23;100889.25;;;-1.92;66.81
42003;BME280;27693;50.506;30.832;2023-02-28T00:16:26;100889.43;;;-1.86;66.85
42003;BME280;27693;50.506;30.832;2023-02-28T00:17:29;100893.42;;;-1.96;66.00
42003;BME280;27693;50.506;30.832;2023-02-28T00:18:33;100888.03;;;-2.08;65.94
42003;BME280;27693;50.506;30.832;2023-02-28T00:19:36;100889.84;;;-2.04;66.23
42003;BME280;27693;50.506;30.832;2023-02-28T00:20:39;100899.56;;;-2.22;66.29
42003;BME280;27693;50.506;30.832;2023-02-28T00:21:42;100892.55;;;-2.31;66.76
42003;BME280;27693;50.506;30.832;2023-02-28T00:22:48;100893.52;;;-2.26;67.13
42003;BME280;27693;50.506;30.832;2023-02-28T00:23:50;100888.61;;;-2.20;67.02
42003;BME280;27693;50.506;30.832;2023-02-28T00:24:53;100888.81;;;-2.11;67.28
42003;BME280;27693;50.506;30.832;2023-02-28T00:25:59;100888.81;;;-2.11;67.28
42003;BME280;27693;50.506;30.832;2023-02-28T00:27:03;100893.36;;;-1.99;67.32
42003;BME280;27693;50.506;30.832;2023-02-28T00:28:06;100890.19;;;-1.88;66.83
42003;BME280;27693;50.506;30.832;2023-02-28T00:29:09;100895.41;;;-1.84;66.47
42003;BME280;27693;50.506;30.832;2023-02-28T00:30:19;100887.08;;;-1.77;66.53
42003;BME280;27693;50.506;30.832;2023-02-28T00:31:21;100887.16;;;-1.73;66.09
42003;BME280;27693;50.506;30.832;2023-02-28T00:32:25;100890.65;;;-1.70;65.87
42003;BME280;27693;50.506;30.832;2023-02-28T00:33:30;100883.98;;;-1.63;66.02
42003;BME280;27693;50.506;30.832;2023-02-28T00:34:33;100881.53;;;-1.58;65.97
42003;BME280;27693;50.506;30.832;2023-02-28T00:35:39;100879.02;;;-1.57;65.31
42003;BME280;27693;50.506;30.832;2023-02-28T00:36:44;100878.14;;;-1.59;65.04
42003;BME280;27693;50.506;30.832;2023-02-28T00:37:48;100873.77;;;-1.63;65.47
42003;BME280;27693;50.506;30.832;2023-02-28T00:38:52;100867.71;;;-1.68;65.30
42003;BME280;27693;50.506;30.832;2023-02-28T00:39:54;100868.62;;;-1.66;65.38
42003;BME280;27693;50.506;30.832;2023-02-28T00:40:57;100871.17;;;-1.66;65.57
42003;BME280;27693;50.506;30.832;2023-02-28T00:42:00;100868.53;;;-1.69;65.63
42003;BME280;27693;50.506;30.832;2023-02-28T00:43:04;100868.48;;;-1.72;65.48
42003;BME280;27693;50.506;30.832;2023-02-28T00:44:06;100876.05;;;-1.75;65.51
42003;BME280;27693;50.506;30.832;2023-02-28T00:45:09;100875.06;;;-1.82;65.70
42003;BME280;27693;50.506;30.832;2023-02-28T00:46:13;100878.48;;;-1.80;65.88
42003;BME280;27693;50.506;30.832;2023-02-28T00:47:16;100881.16;;;-1.75;65.67
42003;BME280;27693;50.506;30.832;2023-02-28T00:48:19;100887.22;;;-1.70;65.69
42003;BME280;27693;50.506;30.832;2023-02-28T00:49:21;100895.86;;;-1.65;66.04
42003;BME280;27693;50.506;30.832;2023-02-28T00:50:25;100889.91;;;-1.64;65.45
42003;BME280;27693;50.506;30.832;2023-02-28T00:51:27;100890.56;;;-1.73;65.15
42003;BME280;27693;50.506;30.832;2023-02-28T00:52:32;100891.36;;;-1.75;65.54
42003;BME280;27693;50.506;30.832;2023-02-28T00:53:36;100881.78;;;-1.86;65.36
42003;BME280;27693;50.506;30.832;2023-02-28T00:54:39;100882.62;;;-1.85;66.19
42003;BME280;27693;50.506;30.832;2023-02-28T00:55:42;100891.36;;;-1.75;66.22
42003;BME280;27693;50.506;30.832;2023-02-28T00:56:46;100891.45;;;-1.72;65.86
42003;BME280;27693;50.506;30.832;2023-02-28T00:57:48;100889.58;;;-1.80;65.44
42003;BME280;27693;50.506;30.832;2023-02-28T00:58:51;100884.47;;;-1.80;65.49
42003;BME280;27693;50.506;30.832;2023-02-28T00:59:54;100879.42;;;-1.77;65.83
42003;BME280;27693;50.506;30.832;2023-02-28T01:00:57;100881.09;;;-1.79;65.58
42003;BME280;27693;50.506;30.832;2023-02-28T01:02:00;100885.20;;;-1.84;65.89
42003;BME280;27693;50.506;30.832;2023-02-28T01:03:02;100882.66;;;-1.84;66.01
42003;BME280;27693;50.506;30.832;2023-02-28T01:04:05;100880.73;;;-1.94;66.12
42003;BME280;27693;50.506;30.832;2023-02-28T01:05:08;100888.41;;;-1.93;66.41
42003;BME280;27693;50.506;30.832;2023-02-28T01:06:11;100889.34;;;-1.89;66.32
42003;BME280;27693;50.506;30.832;2023-02-28T01:07:13;100894.36;;;-1.92;66.34
42003;BME280;27693;50.506;30.832;2023-02-28T01:08:16;100884.09;;;-1.95;66.31
42003;BME280;27693;50.506;30.832;2023-02-28T01:09:18;100886.53;;;-2.00;66.54
42003;BME280;27693;50.506;30.832;2023-02-28T01:10:21;100894.30;;;-1.95;66.59
42003;BME280;27693;50.506;30.832;2023-02-28T01:11:24;100890.98;;;-1.91;66.36
42003;BME280;27693;50.506;30.832;2023-02-28T01:12:28;100885.83;;;-1.94;66.05
42003;BME280;27693;50.506;30.832;2023-02-28T01:13:32;100887.56;;;-1.93;66.24
42003;BME280;27693;50.506;30.832;2023-02-28T01:14:34;100882.45;;;-1.93;66.14
42003;BME280;27693;50.506;30.832;2023-02-28T01:15:43;100885.88;;;-1.91;66.18
42003;BME280;27693;50.506;30.832;2023-02-28T01:16:47;100896.09;;;-1.91;66.12
42003;BME280;27693;50.506;30.832;2023-02-28T01:17:49;100883.30;;;-1.93;66.20
42003;BME280;27693;50.506;30.832;2023-02-28T01:18:52;100887.17;;;-2.09;66.32
42003;BME280;27693;50.506;30.832;2023-02-28T01:19:55;100888.11;;;-2.05;66.78
42003;BME280;27693;50.506;30.832;2023-02-28T01:21:09;100883.22;;;-1.96;66.93
42003;BME280;27693;50.506;30.832;2023-02-28T01:22:12;100881.66;;;-1.90;66.44
42003;BME280;27693;50.506;30.832;2023-02-28T01:23:17;100882.66;;;-1.84;66.31
42003;BME280;27693;50.506;30.832;2023-02-28T01:24:22;100881.09;;;-1.79;66.68
42003;BME280;27693;50.506;30.832;2023-02-28T01:25:24;100885.48;;;-1.71;66.48
42003;BME280;27693;50.506;30.832;2023-02-28T01:26:27;100884.66;;;-1.70;66.10
42003;BME280;27693;50.506;30.832;2023-02-28T01:27:29;100884.66;;;-1.70;66.10
42003;BME280;27693;50.506;30.832;2023-02-28T01:28:32;100891.22;;;-1.82;65.87
42003;BME280;27693;50.506;30.832;2023-02-28T01:29:34;100895.47;;;-1.82;66.16
42003;BME280;27693;50.506;30.832;2023-02-28T01:30:37;100892.52;;;-1.99;66.23
42003;BME280;27693;50.506;30.832;2023-02-28T01:31:41;100897.23;;;-2.15;66.23
42003;BME280;27693;50.506;30.832;2023-02-28T01:32:44;100890.13;;;-2.27;67.21
42003;BME280;27693;50.506;30.832;2023-02-28T01:33:46;100895.06;;;-2.33;67.14
42003;BME280;27693;50.506;30.832;2023-02-28T01:34:51;100889.18;;;-2.30;67.07
42003;BME280;27693;50.506;30.832;2023-02-28T01:37:12;100888.27;;;-2.32;67.62
42003;BME280;27693;50.506;30.832;2023-02-28T01:38:16;100885.38;;;-2.46;67.70
42003;BME280;27693;50.506;30.832;2023-02-28T01:39:20;100883.68;;;-2.46;67.99
42003;BME280;27693;50.506;30.832;2023-02-28T01:40:25;100897.08;;;-2.53;67.77
42003;BME280;27693;50.506;30.832;2023-02-28T01:41:30;100897.08;;;-2.53;67.77
42003;BME280;27693;50.506;30.832;2023-02-28T01:42:35;100887.80;;;-2.51;68.03
42003;BME280;27693;50.506;30.832;2023-02-28T01:46:06;100904.73;;;-2.53;68.09
42003;BME280;27693;50.506;30.832;2023-02-28T01:47:08;100898.48;;;-2.64;68.03
42003;BME280;27693;50.506;30.832;2023-02-28T01:48:11;100898.59;;;-2.61;68.28
42003;BME280;27693;50.506;30.832;2023-02-28T01:49:17;100885.84;;;-2.61;68.26
42003;BME280;27693;50.506;30.832;2023-02-28T01:50:23;100897.99;;;-2.51;68.37
42003;BME280;27693;50.506;30.832;2023-02-28T01:51:42;100894.31;;;-2.62;68.17
42003;BME280;27693;50.506;30.832;2023-02-28T01:52:51;100894.37;;;-2.59;68.62
42003;BME280;27693;50.506;30.832;2023-02-28T01:54:05;100891.33;;;-2.46;68.58
42003;BME280;27693;50.506;30.832;2023-02-28T01:55:08;100901.52;;;-2.46;68.55
42003;BME280;27693;50.506;30.832;2023-02-28T01:56:16;100906.71;;;-2.43;68.43
42003;BME280;27693;50.506;30.832;2023-02-28T01:57:24;100903.09;;;-2.51;68.34
42003;BME280;27693;50.506;30.832;2023-02-28T01:58:28;100898.33;;;-2.70;68.38
42003;BME280;27693;50.506;30.832;2023-02-28T02:00:51;100908.97;;;-2.53;68.38
42003;BME280;27693;50.506;30.832;2023-02-28T02:01:55;100909.92;;;-2.50;68.22
42003;BME280;27693;50.506;30.832;2023-02-28T02:03:01;100901.03;;;-2.64;68.20
42003;BME280;27693;50.506;30.832;2023-02-28T02:04:04;100913.04;;;-2.91;68.45
42003;BME280;27693;50.506;30.832;2023-02-28T02:05:14;100908.95;;;-3.16;69.33
42003;BME280;27693;50.506;30.832;2023-02-28T02:06:13;100906.82;;;-3.00;69.73
42003;BME280;27693;50.506;30.832;2023-02-28T02:07:17;100898.54;;;-2.93;69.46
42003;BME280;27693;50.506;30.832;2023-02-28T02:08:23;100908.55;;;-2.99;69.40
42003;BME280;27693;50.506;30.832;2023-02-28T02:09:26;100908.55;;;-2.99;69.55
42003;BME280;27693;50.506;30.832;2023-02-28T02:10:44;100908.77;;;-2.92;69.56
42003;BME280;27693;50.506;30.832;2023-02-28T02:11:47;100916.19;;;-2.99;69.07
42003;BME280;27693;50.506;30.832;2023-02-28T02:13:05;100906.92;;;-2.97;69.41
42003;BME280;27693;50.506;30.832;2023-02-28T02:14:28;100906.78;;;-3.02;69.32
42003;BME280;27693;50.506;30.832;2023-02-28T02:16:01;100917.75;;;-3.05;69.47
42003;BME280;27693;50.506;30.832;2023-02-28T02:17:19;100913.12;;;-3.18;69.53
42003;BME280;27693;50.506;30.832;2023-02-28T02:22:21;100918.66;;;-3.02;69.54
42003;BME280;27693;50.506;30.832;2023-02-28T02:26:42;100923.38;;;-3.15;69.71
42003;BME280;27693;50.506;30.832;2023-02-28T02:27:58;100911.91;;;-3.00;69.73
42003;BME280;27693;50.506;30.832;2023-02-28T02:33:06;100910.96;;;-3.04;68.44
42003;BME280;27693;50.506;30.832;2023-02-28T02:34:37;100909.61;;;-2.93;68.88
42003;BME280;27693;50.506;30.832;2023-02-28T02:36:10;100913.92;;;-2.90;68.77
42003;BME280;27693;50.506;30.832;2023-02-28T02:40:27;100925.22;;;-3.11;68.65
42003;BME280;27693;50.506;30.832;2023-02-28T02:41:49;100922.20;;;-2.97;68.77
42003;BME280;27693;50.506;30.832;2023-02-28T02:42:59;100923.23;;;-2.91;68.53
42003;BME280;27693;50.506;30.832;2023-02-28T02:44:26;100915.91;;;-3.09;68.84
42003;BME280;27693;50.506;30.832;2023-02-28T02:46:42;100925.28;;;-3.08;68.99
42003;BME280;27693;50.506;30.832;2023-02-28T02:47:46;100923.48;;;-3.12;69.09
42003;BME280;27693;50.506;30.832;2023-02-28T02:48:50;100930.48;;;-3.05;69.18
42003;BME280;27693;50.506;30.832;2023-02-28T02:49:57;100935.54;;;-3.06;69.29
42003;BME280;27693;50.506;30.832;2023-02-28T02:51:03;100928.92;;;-2.99;69.40
42003;BME280;27693;50.506;30.832;2023-02-28T02:52:08;100934.33;;;-2.89;69.09
42003;BME280;27693;50.506;30.832;2023-02-28T02:53:14;100926.86;;;-2.82;69.21
42003;BME280;27693;50.506;30.832;2023-02-28T02:54:24;100931.27;;;-2.77;68.71
42003;BME280;27693;50.506;30.832;2023-02-28T02:55:31;100937.22;;;-2.76;68.64
42003;BME280;27693;50.506;30.832;2023-02-28T02:56:38;100936.09;;;-2.86;68.10
42003;BME280;27693;50.506;30.832;2023-02-28T02:57:54;100937.02;;;-3.13;68.54
42003;BME280;27693;50.506;30.832;2023-02-28T02:59:01;100934.12;;;-2.96;68.86
42003;BME280;27693;50.506;30.832;2023-02-28T03:00:06;100934.05;;;-2.98;68.55
42003;BME280;27693;50.506;30.832;2023-02-28T03:01:14;100937.52;;;-2.96;68.41
42003;BME280;27693;50.506;30.832;2023-02-28T03:02:17;100940.20;;;-2.91;68.44
42003;BME280;27693;50.506;30.832;2023-02-28T03:03:21;100943.02;;;-2.82;68.19
42003;BME280;27693;50.506;30.832;2023-02-28T03:04:30;100938.12;;;-3.05;68.57
42003;BME280;27693;50.506;30.832;2023-02-28T03:05:42;100935.11;;;-2.91;68.67
42003;BME280;27693;50.506;30.832;2023-02-28T03:06:45;100943.73;;;-2.86;68.23
42003;BME280;27693;50.506;30.832;2023-02-28T03:07:48;100926.89;;;-2.81;68.44
42003;BME280;27693;50.506;30.832;2023-02-28T03:08:51;100935.59;;;-2.74;68.14
42003;BME280;27693;50.506;30.832;2023-02-28T03:09:55;100945.27;;;-2.62;67.98
42003;BME280;27693;50.506;30.832;2023-02-28T03:11:06;100946.31;;;-2.54;68.03
42003;BME280;27693;50.506;30.832;2023-02-28T03:12:12;100947.39;;;-2.46;67.50
42003;BME280;27693;50.506;30.832;2023-02-28T03:14:57;100949.13;;;-2.45;67.07
42003;BME280;27693;50.506;30.832;2023-02-28T03:16:07;100953.50;;;-2.41;67.12
42003;BME280;27693;50.506;30.832;2023-02-28T03:19:14;100953.95;;;-2.54;66.96
42003;BME280;27693;50.506;30.832;2023-02-28T03:20:41;100957.19;;;-2.61;66.98
42003;BME280;27693;50.506;30.832;2023-02-28T03:22:13;100948.69;;;-2.60;67.22
42003;BME280;27693;50.506;30.832;2023-02-28T03:24:56;100964.75;;;-2.93;68.25
42003;BME280;27693;50.506;30.832;2023-02-28T03:26:13;100966.36;;;-2.66;68.33
42003;BME280;27693;50.506;30.832;2023-02-28T03:27:31;100972.03;;;-2.77;68.21
42003;BME280;27693;50.506;30.832;2023-02-28T03:30:18;100972.25;;;-2.98;67.89
42003;BME280;27693;50.506;30.832;2023-02-28T03:31:26;100974.92;;;-3.22;68.76
42003;BME280;27693;50.506;30.832;2023-02-28T03:32:36;100981.11;;;-3.14;69.19
42003;BME280;27693;50.506;30.832;2023-02-28T03:33:44;100968.75;;;-3.01;69.67
42003;BME280;27693;50.506;30.832;2023-02-28T03:34:49;100974.94;;;-2.93;69.78
42003;BME280;27693;50.506;30.832;2023-02-28T03:35:55;100980.31;;;-2.84;69.28
42003;BME280;27693;50.506;30.832;2023-02-28T03:37:15;100964.42;;;-2.75;68.81
42003;BME280;27693;50.506;30.832;2023-02-28T03:38:24;100968.06;;;-2.67;68.53
42003;BME280;27693;50.506;30.832;2023-02-28T03:39:35;100972.37;;;-2.64;68.16
42003;BME280;27693;50.506;30.832;2023-02-28T03:40:39;100973.19;;;-2.65;68.27
42003;BME280;27693;50.506;30.832;2023-02-28T03:41:46;100965.81;;;-2.56;67.76
42003;BME280;27693;50.506;30.832;2023-02-28T03:42:54;100965.00;;;-2.55;67.61
42003;BME280;27693;50.506;30.832;2023-02-28T03:44:06;100962.69;;;-2.46;67.58
42003;BME280;27693;50.506;30.832;2023-02-28T03:45:11;100969.67;;;-2.38;67.23
42003;BME280;27693;50.506;30.832;2023-02-28T03:46:17;100972.16;;;-2.42;67.12
42003;BME280;27693;50.506;30.832;2023-02-28T03:47:29;100970.09;;;-2.55;67.12
42003;BME280;27693;50.506;30.832;2023-02-28T03:48:47;100977.81;;;-2.52;67.30
42003;BME280;27693;50.506;30.832;2023-02-28T03:49:56;100976.17;;;-2.50;67.28
42003;BME280;27693;50.506;30.832;2023-02-28T03:50:59;100967.61;;;-2.52;67.36
42003;BME280;27693;50.506;30.832;2023-02-28T03:52:05;100972.03;;;-2.46;67.25
42003;BME280;27693;50.506;30.832;2023-02-28T03:54:31;100972.87;;;-2.46;66.97
42003;BME280;27693;50.506;30.832;2023-02-28T03:55:37;100972.71;;;-2.52;66.99
42003;BME280;27693;50.506;30.832;2023-02-28T03:56:48;100969.79;;;-2.66;67.16
42003;BME280;27693;50.506;30.832;2023-02-28T03:59:32;100965.81;;;-2.56;67.36
42003;BME280;27693;50.506;30.832;2023-02-28T04:00:40;100963.40;;;-2.51;67.45
42003;BME280;27693;50.506;30.832;2023-02-28T04:01:45;100963.34;;;-2.53;67.20
42003;BME280;27693;50.506;30.832;2023-02-28T04:02:48;100974.17;;;-2.60;67.36
42003;BME280;27693;50.506;30.832;2023-02-28T04:03:53;100970.50;;;-2.70;67.60
42003;BME280;27693;50.506;30.832;2023-02-28T04:04:55;100973.13;;;-2.68;67.82
42003;BME280;27693;50.506;30.832;2023-02-28T04:05:59;100964.42;;;-2.75;68.05
42003;BME280;27693;50.506;30.832;2023-02-28T04:07:07;100976.17;;;-2.80;68.02
42003;BME280;27693;50.506;30.832;2023-02-28T04:08:08;100965.87;;;-2.83;68.20
42003;BME280;27693;50.506;30.832;2023-02-28T04:09:13;100965.84;;;-2.85;68.29
42003;BME280;27693;50.506;30.832;2023-02-28T04:10:16;100972.74;;;-2.81;68.44
42003;BME280;27693;50.506;30.832;2023-02-28T04:11:30;100962.83;;;-2.71;68.36
42003;BME280;27693;50.506;30.832;2023-02-28T04:12:33;100962.02;;;-2.70;68.29
42003;BME280;27693;50.506;30.832;2023-02-28T04:13:35;100957.94;;;-2.64;68.08
42003;BME280;27693;50.506;30.832;2023-02-28T04:14:37;100959.84;;;-2.57;68.07
42003;BME280;27693;50.506;30.832;2023-02-28T04:15:40;100960.88;;;-2.50;67.84
42003;BME280;27693;50.506;30.832;2023-02-28T04:16:43;100960.00;;;-2.81;67.78
42003;BME280;27693;50.506;30.832;2023-02-28T04:17:45;100963.47;;;-2.79;68.21
42003;BME280;27693;50.506;30.832;2023-02-28T04:18:49;100949.27;;;-2.70;68.78
42003;BME280;27693;50.506;30.832;2023-02-28T04:20:13;100949.27;;;-2.70;68.78
42003;BME280;27693;50.506;30.832;2023-02-28T04:21:15;100963.81;;;-2.66;68.42
42003;BME280;27693;50.506;30.832;2023-02-28T04:22:18;100953.62;;;-2.66;68.63
42003;BME280;27693;50.506;30.832;2023-02-28T04:23:20;100956.92;;;-2.70;68.61
42003;BME280;27693;50.506;30.832;2023-02-28T04:24:27;100953.45;;;-2.73;68.52
42003;BME280;27693;50.506;30.832;2023-02-28T04:25:28;100955.32;;;-2.67;68.62
42003;BME280;27693;50.506;30.832;2023-02-28T04:26:33;100958.98;;;-2.57;68.56
42003;BME280;27693;50.506;30.832;2023-02-28T04:27:36;100945.59;;;-2.50;68.76
42003;BME280;27693;50.506;30.832;2023-02-28T04:28:38;100945.59;;;-2.50;68.80
42003;BME280;27693;50.506;30.832;2023-02-28T04:29:41;100951.70;;;-2.43;69.34
42003;BME280;27693;50.506;30.832;2023-02-28T04:30:46;100953.59;;;-2.36;69.65
42003;BME280;27693;50.506;30.832;2023-02-28T04:31:48;100952.63;;;-2.41;68.82
42003;BME280;27693;50.506;30.832;2023-02-28T04:32:51;100961.14;;;-2.41;69.37
42003;BME280;27693;50.506;30.832;2023-02-28T04:33:54;100945.86;;;-2.41;70.08
42003;BME280;27693;50.506;30.832;2023-02-28T04:34:57;100957.09;;;-2.32;69.55
42003;BME280;27693;50.506;30.832;2023-02-28T04:36:04;100963.01;;;-2.33;69.24
42003;BME280;27693;50.506;30.832;2023-02-28T04:37:07;100969.67;;;-2.38;69.52
42003;BME280;27693;50.506;30.832;2023-02-28T04:38:11;100967.29;;;-2.32;69.46
42003;BME280;27693;50.506;30.832;2023-02-28T04:39:13;100970.72;;;-2.32;70.18
42003;BME280;27693;50.506;30.832;2023-02-28T04:40:17;100954.70;;;-2.26;69.21
42003;BME280;27693;50.506;30.832;2023-02-28T04:41:20;100954.70;;;-2.26;69.21
42003;BME280;27693;50.506;30.832;2023-02-28T04:42:23;100972.52;;;-2.28;69.02
42003;BME280;27693;50.506;30.832;2023-02-28T04:43:27;100971.51;;;-2.34;68.85
42003;BME280;27693;50.506;30.832;2023-02-28T04:44:29;100972.97;;;-2.43;69.21
42003;BME280;27693;50.506;30.832;2023-02-28T04:45:32;100978.92;;;-2.42;69.94
42003;BME280;27693;50.506;30.832;2023-02-28T04:46:35;100972.87;;;-2.46;69.35
42003;BME280;27693;50.506;30.832;2023-02-28T04:47:38;100979.54;;;-2.51;69.67
42003;BME280;27693;50.506;30.832;2023-02-28T04:48:40;100972.06;;;-2.45;70.80
42003;BME280;27693;50.506;30.832;2023-02-28T04:49:42;100978.89;;;-2.44;70.33
42003;BME280;27693;50.506;30.832;2023-02-28T04:50:45;100978.72;;;-2.50;69.87
42003;BME280;27693;50.506;30.832;2023-02-28T04:51:47;100971.86;;;-2.52;69.93
42003;BME280;27693;50.506;30.832;2023-02-28T04:52:51;100978.59;;;-2.54;70.46
42003;BME280;27693;50.506;30.832;2023-02-28T04:53:53;100977.47;;;-2.64;70.63
42003;BME280;27693;50.506;30.832;2023-02-28T04:54:56;100976.14;;;-2.51;71.56
42003;BME280;27693;50.506;30.832;2023-02-28T04:55:58;100972.36;;;-2.34;71.64
42003;BME280;27693;50.506;30.832;2023-02-28T04:57:01;100978.59;;;-2.22;71.97
42003;BME280;27693;50.506;30.832;2023-02-28T04:58:03;100971.89;;;-2.19;70.45
42003;BME280;27693;50.506;30.832;2023-02-28T04:59:05;100970.26;;;-2.17;70.07
42003;BME280;27693;50.506;30.832;2023-02-28T05:00:10;100978.88;;;-2.12;70.21
42003;BME280;27693;50.506;30.832;2023-02-28T05:01:26;100974.57;;;-2.14;69.77
42003;BME280;27693;50.506;30.832;2023-02-28T05:02:30;100973.34;;;-2.29;69.02
42003;BME280;27693;50.506;30.832;2023-02-28T05:03:33;100982.97;;;-2.18;69.88
42003;BME280;27693;50.506;30.832;2023-02-28T05:04:36;100972.14;;;-2.10;69.71
42003;BME280;27693;50.506;30.832;2023-02-28T05:05:39;100967.96;;;-2.07;69.50
42003;BME280;27693;50.506;30.832;2023-02-28T05:06:42;100981.34;;;-2.16;68.79
42003;BME280;27693;50.506;30.832;2023-02-28T05:07:44;100972.55;;;-2.26;68.69
42003;BME280;27693;50.506;30.832;2023-02-28T05:08:47;100976.96;;;-2.20;69.84
42003;BME280;27693;50.506;30.832;2023-02-28T05:09:49;100977.16;;;-2.13;69.98
42003;BME280;27693;50.506;30.832;2023-02-28T05:10:52;100973.06;;;-2.07;71.04
42003;BME280;27693;50.506;30.832;2023-02-28T05:11:55;100976.77;;;-1.95;72.06
42003;BME280;27693;50.506;30.832;2023-02-28T05:12:58;100977.86;;;-1.85;71.61
42003;BME280;27693;50.506;30.832;2023-02-28T05:14:02;100985.00;;;-1.71;72.31
42003;BME280;27693;50.506;30.832;2023-02-28T05:15:06;100969.13;;;-1.59;73.23
42003;BME280;27693;50.506;30.832;2023-02-28T05:16:10;100976.31;;;-1.45;73.67
42003;BME280;27693;50.506;30.832;2023-02-28T05:17:13;100969.86;;;-1.29;71.40
42003;BME280;27693;50.506;30.832;2023-02-28T05:18:15;100975.00;;;-1.27;69.35
42003;BME280;27693;50.506;30.832;2023-02-28T05:19:18;100969.80;;;-1.30;68.49
42003;BME280;27693;50.506;30.832;2023-02-28T05:20:20;100979.97;;;-1.33;67.73
42003;BME280;27693;50.506;30.832;2023-02-28T05:22:39;100978.47;;;-1.95;67.34
42003;BME280;27693;50.506;30.832;2023-02-28T05:23:42;100982.31;;;-2.11;68.13
42003;BME280;27693;50.506;30.832;2023-02-28T05:24:44;100981.56;;;-2.07;68.54
42003;BME280;27693;50.506;30.832;2023-02-28T05:25:47;100969.94;;;-2.29;68.44
42003;BME280;27693;50.506;30.832;2023-02-28T05:26:51;100974.41;;;-2.20;69.01
42003;BME280;27693;50.506;30.832;2023-02-28T05:27:54;100969.75;;;-2.03;69.64
42003;BME280;27693;50.506;30.832;2023-02-28T05:28:57;100979.56;;;-1.85;69.44
42003;BME280;27693;50.506;30.832;2023-02-28T05:30:00;100975.98;;;-1.92;68.69
42003;BME280;27693;50.506;30.832;2023-02-28T05:31:05;100981.02;;;-1.95;68.44
42003;BME280;27693;50.506;30.832;2023-02-28T05:32:09;100979.10;;;-2.04;68.60
42003;BME280;27693;50.506;30.832;2023-02-28T05:33:13;100982.34;;;-2.10;68.79
42003;BME280;27693;50.506;30.832;2023-02-28T05:34:16;100976.05;;;-2.22;68.93
42003;BME280;27693;50.506;30.832;2023-02-28T05:35:18;100983.76;;;-2.21;69.77
42003;BME280;27693;50.506;30.832;2023-02-28T05:36:23;100984.45;;;-2.27;69.58
42003;BME280;27693;50.506;30.832;2023-02-28T05:37:25;100986.70;;;-2.37;70.27
42003;BME280;27693;50.506;30.832;2023-02-28T05:38:27;100982.02;;;-2.22;70.59
42003;BME280;27693;50.506;30.832;2023-02-28T05:39:30;100976.77;;;-2.28;70.27
42003;BME280;27693;50.506;30.832;2023-02-28T05:40:33;100978.56;;;-2.24;70.48
42003;BME280;27693;50.506;30.832;2023-02-28T05:41:35;100984.89;;;-2.10;70.57
42003;BME280;27693;50.506;30.832;2023-02-28T05:42:38;100978.59;;;-1.90;70.80
42003;BME280;27693;50.506;30.832;2023-02-28T05:43:40;100989.95;;;-1.78;70.58
42003;BME280;27693;50.506;30.832;2023-02-28T05:44:43;100989.17;;;-2.09;69.71
42003;BME280;27693;50.506;30.832;2023-02-28T05:45:45;100980.20;;;-2.26;70.47
42003;BME280;27693;50.506;30.832;2023-02-28T05:46:47;100994.28;;;-2.09;71.29
42003;BME280;27693;50.506;30.832;2023-02-28T05:47:54;100986.75;;;-2.04;70.91
42003;BME280;27693;50.506;30.832;2023-02-28T05:48:57;100991.22;;;-1.95;70.56
42003;BME280;27693;50.506;30.832;2023-02-28T05:50:03;100994.12;;;-2.15;70.69
42003;BME280;27693;50.506;30.832;2023-02-28T05:51:07;100990.81;;;-2.11;71.35
42003;BME280;27693;50.506;30.832;2023-02-28T05:52:10;100996.23;;;-1.98;71.54
42003;BME280;27693;50.506;30.832;2023-02-28T05:53:13;100993.95;;;-1.87;71.35
42003;BME280;27693;50.506;30.832;2023-02-28T05:54:15;100992.98;;;-1.59;70.33
42003;BME280;27693;50.506;30.832;2023-02-28T05:55:18;100992.98;;;-1.59;70.33
42003;BME280;27693;50.506;30.832;2023-02-28T05:56:21;100992.25;;;-1.53;69.82
42003;BME280;27693;50.506;30.832;2023-02-28T05:57:24;100994.00;;;-1.51;69.90
42003;BME280;27693;50.506;30.832;2023-02-28T05:58:27;100993.71;;;-1.63;69.53
42003;BME280;27693;50.506;30.832;2023-02-28T05:59:31;100998.52;;;-1.75;69.35
42003;BME280;27693;50.506;30.832;2023-02-28T06:00:35;100994.11;;;-1.81;69.52
42003;BME280;27693;50.506;30.832;2023-02-28T06:01:40;101000.16;;;-1.78;69.92
42003;BME280;27693;50.506;30.832;2023-02-28T06:02:43;100997.00;;;-1.69;70.24
42003;BME280;27693;50.506;30.832;2023-02-28T06:03:46;101004.44;;;-1.77;70.43
42003;BME280;27693;50.506;30.832;2023-02-28T06:04:49;101004.44;;;-1.77;70.43
42003;BME280;27693;50.506;30.832;2023-02-28T06:05:51;101001.93;;;-2.41;70.41
42003;BME280;27693;50.506;30.832;2023-02-28T06:06:54;101002.51;;;-2.49;71.73
42003;BME280;27693;50.506;30.832;2023-02-28T06:07:56;101003.05;;;-2.31;72.47
42003;BME280;27693;50.506;30.832;2023-02-28T06:08:58;101003.53;;;-2.12;72.18